TimeCST,TemperatureF,Dew PointF,Humidity,Sea Level PressureIn,VisibilityMPH,Wind Direction,Wind SpeedMPH,Gust SpeedMPH,PrecipitationIn,Events,Conditions,WindDirDegrees,DateUTC
12:15 AM,32.0,28.4,87,29.56,7.0,Calm,Calm,-,N/A,,Overcast,0,2013-11-09 06:15:00
12:35 AM,32.0,30.2,93,29.56,7.0,South,3.5,-,N/A,,Overcast,170,2013-11-09 06:35:00
12:55 AM,32.0,28.4,87,29.57,6.0,Calm,Calm,-,N/A,,Overcast,0,2013-11-09 06:55:00
1:15 AM,32.0,30.2,93,29.57,5.0,Calm,Calm,-,N/A,,Overcast,0,2013-11-09 07:15:00
1:35 AM,32.0,28.4,87,29.57,5.0,Calm,Calm,-,N/A,,Overcast,0,2013-11-09 07:35:00
1:55 AM,32.0,30.2,93,29.57,3.0,Calm,Calm,-,N/A,,Overcast,0,2013-11-09 07:55:00
2:15 AM,32.0,30.2,93,29.57,2.0,Calm,Calm,-,N/A,,Overcast,0,2013-11-09 08:15:00
2:35 AM,32.0,30.2,93,29.57,1.5,WSW,3.5,-,N/A,,Overcast,250,2013-11-09 08:35:00
2:55 AM,32.0,30.2,93,29.57,1.5,WNW,4.6,-,N/A,,Overcast,290,2013-11-09 08:55:00
3:15 AM,32.0,30.2,93,29.57,1.8,West,6.9,-,N/A,,Overcast,280,2013-11-09 09:15:00
3:35 AM,32.0,30.2,93,29.58,3.0,West,5.8,-,N/A,,Overcast,270,2013-11-09 09:35:00
3:55 AM,32.0,30.2,93,29.58,3.0,West,6.9,-,N/A,,Overcast,280,2013-11-09 09:55:00
4:15 AM,32.0,30.2,93,29.59,2.0,West,5.8,-,N/A,,Overcast,280,2013-11-09 10:15:00
4:35 AM,33.8,30.2,87,29.60,2.0,West,10.4,-,N/A,,Overcast,280,2013-11-09 10:35:00
4:55 AM,33.8,30.2,87,29.61,1.2,West,9.2,-,N/A,,Overcast,280,2013-11-09 10:55:00
5:15 AM,33.8,30.2,87,29.61,1.0,WNW,8.1,-,N/A,,Overcast,290,2013-11-09 11:15:00
5:35 AM,33.8,30.2,87,29.62,1.2,WNW,11.5,-,N/A,,Overcast,300,2013-11-09 11:35:00
5:55 AM,33.8,30.2,87,29.63,2.0,WNW,11.5,-,N/A,,Overcast,290,2013-11-09 11:55:00
6:15 AM,33.8,30.2,87,29.63,2.5,WNW,9.2,-,N/A,,Overcast,300,2013-11-09 12:15:00
6:35 AM,33.8,30.2,87,29.64,4.0,WNW,13.8,-,N/A,,Overcast,300,2013-11-09 12:35:00
6:55 AM,33.8,30.2,87,29.65,7.0,NW,13.8,24.2,N/A,,Overcast,310,2013-11-09 12:55:00
7:15 AM,33.8,30.2,87,29.66,7.0,NW,13.8,19.6,N/A,,Overcast,310,2013-11-09 13:15:00
7:35 AM,33.8,30.2,87,29.68,5.0,WNW,12.7,18.4,N/A,,Overcast,290,2013-11-09 13:35:00
7:55 AM,33.8,30.2,87,29.69,3.0,NW,10.4,19.6,N/A,,Overcast,310,2013-11-09 13:55:00
8:15 AM,33.8,30.2,87,29.70,4.0,WNW,10.4,-,N/A,,Overcast,300,2013-11-09 14:15:00
8:35 AM,33.8,30.2,87,29.70,4.0,WNW,10.4,18.4,N/A,,Overcast,300,2013-11-09 14:35:00
8:55 AM,33.8,30.2,87,29.71,6.0,WNW,15.0,19.6,N/A,,Overcast,300,2013-11-09 14:55:00
9:15 AM,33.8,30.2,87,29.72,8.0,WNW,13.8,19.6,N/A,,Overcast,290,2013-11-09 15:15:00
9:35 AM,33.8,30.2,87,29.72,9.0,West,13.8,19.6,N/A,,Overcast,280,2013-11-09 15:35:00
9:55 AM,33.8,30.2,87,29.73,10.0,West,16.1,25.3,N/A,,Overcast,280,2013-11-09 15:55:00
10:15 AM,33.8,28.4,81,29.74,10.0,WNW,13.8,20.7,N/A,,Overcast,290,2013-11-09 16:15:00
10:35 AM,33.8,28.4,81,29.75,10.0,WNW,13.8,24.2,N/A,,Overcast,290,2013-11-09 16:35:00
10:55 AM,33.8,30.2,87,29.76,10.0,WNW,12.7,18.4,N/A,,Overcast,290,2013-11-09 16:55:00
11:15 AM,33.8,28.4,81,29.77,10.0,WNW,13.8,21.9,N/A,,Overcast,300,2013-11-09 17:15:00
11:35 AM,33.8,30.2,87,29.77,7.0,WNW,12.7,18.4,N/A,,Overcast,290,2013-11-09 17:35:00
11:55 AM,33.8,30.2,87,29.77,4.0,WNW,13.8,21.9,N/A,,Overcast,300,2013-11-09 17:55:00
12:15 PM,33.8,30.2,87,29.78,5.0,WNW,12.7,20.7,N/A,,Overcast,290,2013-11-09 18:15:00
12:35 PM,33.8,30.2,87,29.78,7.0,WNW,15.0,25.3,N/A,,Overcast,300,2013-11-09 18:35:00
12:55 PM,33.8,30.2,87,29.79,9.0,WNW,16.1,20.7,N/A,,Overcast,290,2013-11-09 18:55:00
1:15 PM,33.8,30.2,87,29.79,4.0,WNW,17.3,25.3,N/A,,Overcast,290,2013-11-09 19:15:00
1:35 PM,33.8,30.2,87,29.80,5.0,West,11.5,20.7,N/A,,Overcast,280,2013-11-09 19:35:00
1:55 PM,33.8,30.2,87,29.81,6.0,West,11.5,21.9,N/A,,Overcast,280,2013-11-09 19:55:00
2:15 PM,33.8,28.4,81,29.82,9.0,West,17.3,27.6,N/A,,Overcast,280,2013-11-09 20:15:00
2:35 PM,32.0,28.4,87,29.83,10.0,WNW,17.3,27.6,N/A,,Overcast,290,2013-11-09 20:35:00
2:55 PM,32.0,28.4,87,29.84,10.0,WNW,15.0,26.5,N/A,,Overcast,290,2013-11-09 20:55:00
3:15 PM,33.8,28.4,81,29.85,10.0,WNW,18.4,26.5,N/A,,Overcast,290,2013-11-09 21:15:00
3:35 PM,33.8,28.4,81,29.86,10.0,WNW,17.3,23.0,N/A,,Overcast,290,2013-11-09 21:35:00
3:55 PM,33.8,26.6,75,29.88,10.0,WNW,13.8,20.7,N/A,,Overcast,290,2013-11-09 21:55:00
4:15 PM,33.8,26.6,75,29.89,10.0,WNW,17.3,23.0,N/A,,Overcast,300,2013-11-09 22:15:00
4:35 PM,33.8,26.6,75,29.89,10.0,WNW,12.7,-,N/A,,Overcast,290,2013-11-09 22:35:00
4:55 PM,33.8,28.4,81,29.91,10.0,WNW,11.5,20.7,N/A,,Overcast,290,2013-11-09 22:55:00
5:15 PM,33.8,28.4,81,29.92,10.0,WNW,10.4,24.2,N/A,,Overcast,290,2013-11-09 23:15:00
5:35 PM,33.8,28.4,81,29.93,10.0,WNW,13.8,25.3,N/A,,Overcast,290,2013-11-09 23:35:00
5:55 PM,33.8,28.4,81,29.94,10.0,WNW,11.5,21.9,N/A,,Overcast,290,2013-11-09 23:55:00
6:15 PM,33.8,28.4,81,29.95,10.0,WNW,15.0,25.3,N/A,,Overcast,290,2013-11-10 00:15:00
6:35 PM,33.8,28.4,81,29.96,10.0,West,16.1,20.7,N/A,,Overcast,280,2013-11-10 00:35:00
6:55 PM,33.8,28.4,81,29.96,10.0,WNW,13.8,24.2,N/A,,Overcast,290,2013-11-10 00:55:00
7:15 PM,33.8,28.4,81,29.97,10.0,WNW,10.4,19.6,N/A,,Overcast,290,2013-11-10 01:15:00
7:35 PM,33.8,28.4,81,29.98,10.0,WNW,15.0,20.7,N/A,,Overcast,300,2013-11-10 01:35:00
7:55 PM,33.8,28.4,81,29.99,10.0,NW,15.0,25.3,N/A,,Overcast,310,2013-11-10 01:55:00
8:15 PM,33.8,28.4,81,30.00,10.0,NW,20.7,27.6,N/A,,Overcast,310,2013-11-10 02:15:00
8:35 PM,33.8,28.4,81,30.01,10.0,NW,17.3,25.3,N/A,,Overcast,310,2013-11-10 02:35:00
8:55 PM,33.8,28.4,81,30.02,10.0,NW,18.4,23.0,N/A,,Overcast,310,2013-11-10 02:55:00
9:15 PM,33.8,28.4,81,30.03,10.0,NW,15.0,21.9,N/A,,Overcast,310,2013-11-10 03:15:00
9:35 PM,33.8,28.4,81,30.04,10.0,WNW,18.4,27.6,N/A,,Overcast,300,2013-11-10 03:35:00
9:55 PM,33.8,28.4,81,30.05,10.0,NW,12.7,21.9,N/A,,Overcast,310,2013-11-10 03:55:00
10:15 PM,33.8,28.4,81,30.07,10.0,NW,17.3,27.6,N/A,,Overcast,310,2013-11-10 04:15:00
10:35 PM,33.8,28.4,81,30.07,10.0,NW,16.1,21.9,N/A,,Mostly Cloudy,310,2013-11-10 04:35:00
10:55 PM,33.8,28.4,81,30.08,5.0,WNW,17.3,24.2,N/A,,Overcast,300,2013-11-10 04:55:00
11:15 PM,33.8,28.4,81,30.09,10.0,WNW,16.1,21.9,N/A,,Overcast,300,2013-11-10 05:15:00
11:35 PM,33.8,28.4,81,30.11,10.0,NW,15.0,21.9,N/A,,Overcast,310,2013-11-10 05:35:00
11:55 PM,33.8,28.4,81,30.13,9.0,WNW,15.0,20.7,N/A,,Overcast,300,2013-11-10 05:55:00